sensor_id;sensor_type;location;lat;lon;timestamp;temperature;humidity
5842;DHT22;2947;52.276;9.946;2023-08-07T00:00:35;15.70;99.90
5842;DHT22;2947;52.276;9.946;2023-08-07T00:03:01;15.70;99.90
5842;DHT22;2947;52.276;9.946;2023-08-07T00:05:27;14.10;99.90
5842;DHT22;2947;52.276;9.946;2023-08-07T00:07:53;15.60;99.90
5842;DHT22;2947;52.276;9.946;2023-08-07T00:10:19;15.90;99.90
5842;DHT22;2947;52.276;9.946;2023-08-07T00:12:45;15.70;99.90
5842;DHT22;2947;52.276;9.946;2023-08-07T00:15:11;17.00;99.90
5842;DHT22;2947;52.276;9.946;2023-08-07T00:17:37;15.70;99.90
5842;DHT22;2947;52.276;9.946;2023-08-07T00:20:04;15.70;99.90
5842;DHT22;2947;52.276;9.946;2023-08-07T00:22:30;15.70;99.90
5842;DHT22;2947;52.276;9.946;2023-08-07T00:24:56;16.40;99.90
5842;DHT22;2947;52.276;9.946;2023-08-07T00:27:22;15.70;99.90
5842;DHT22;2947;52.276;9.946;2023-08-07T00:29:47;15.70;99.90
5842;DHT22;2947;52.276;9.946;2023-08-07T00:32:13;15.80;99.90
5842;DHT22;2947;52.276;9.946;2023-08-07T00:34:39;15.80;99.90
5842;DHT22;2947;52.276;9.946;2023-08-07T00:37:05;15.80;99.90
5842;DHT22;2947;52.276;9.946;2023-08-07T00:39:30;15.80;99.90
5842;DHT22;2947;52.276;9.946;2023-08-07T00:41:56;15.80;99.90
5842;DHT22;2947;52.276;9.946;2023-08-07T00:44:22;15.90;99.90
5842;DHT22;2947;52.276;9.946;2023-08-07T00:46:49;15.90;99.90
5842;DHT22;2947;52.276;9.946;2023-08-07T00:49:15;15.90;99.90
5842;DHT22;2947;52.276;9.946;2023-08-07T00:51:42;15.90;99.90
5842;DHT22;2947;52.276;9.946;2023-08-07T00:54:10;15.90;99.90
5842;DHT22;2947;52.276;9.946;2023-08-07T00:56:37;15.90;99.90
5842;DHT22;2947;52.276;9.946;2023-08-07T00:59:04;15.90;99.90
5842;DHT22;2947;52.276;9.946;2023-08-07T01:01:30;15.80;99.90
5842;DHT22;2947;52.276;9.946;2023-08-07T01:03:56;15.80;99.90
5842;DHT22;2947;52.276;9.946;2023-08-07T01:06:22;15.70;99.90
5842;DHT22;2947;52.276;9.946;2023-08-07T01:08:48;15.80;99.90
5842;DHT22;2947;52.276;9.946;2023-08-07T01:11:48;16.50;99.90
5842;DHT22;2947;52.276;9.946;2023-08-07T01:14:41;15.70;99.90
5842;DHT22;2947;52.276;9.946;2023-08-07T01:17:15;15.70;99.90
5842;DHT22;2947;52.276;9.946;2023-08-07T01:19:42;15.70;99.90
5842;DHT22;2947;52.276;9.946;2023-08-07T01:24:36;15.60;99.90
5842;DHT22;2947;52.276;9.946;2023-08-07T01:32:47;15.60;99.90
5842;DHT22;2947;52.276;9.946;2023-08-07T01:35:16;15.60;99.90
5842;DHT22;2947;52.276;9.946;2023-08-07T01:37:42;15.70;99.90
5842;DHT22;2947;52.276;9.946;2023-08-07T01:40:12;16.60;99.90
5842;DHT22;2947;52.276;9.946;2023-08-07T01:42:39;16.20;99.90
5842;DHT22;2947;52.276;9.946;2023-08-07T01:45:05;15.60;99.90
5842;DHT22;2947;52.276;9.946;2023-08-07T01:47:31;14.10;99.90
5842;DHT22;2947;52.276;9.946;2023-08-07T01:49:57;15.60;99.90
5842;DHT22;2947;52.276;9.946;2023-08-07T01:52:23;15.60;99.90
5842;DHT22;2947;52.276;9.946;2023-08-07T01:54:48;16.80;99.90
5842;DHT22;2947;52.276;9.946;2023-08-07T01:57:14;15.50;99.90
5842;DHT22;2947;52.276;9.946;2023-08-07T01:59:40;15.60;99.90
5842;DHT22;2947;52.276;9.946;2023-08-07T02:02:05;15.50;99.90
5842;DHT22;2947;52.276;9.946;2023-08-07T02:04:31;15.60;99.90
5842;DHT22;2947;52.276;9.946;2023-08-07T02:06:57;15.50;99.90
5842;DHT22;2947;52.276;9.946;2023-08-07T02:09:22;15.50;99.90
5842;DHT22;2947;52.276;9.946;2023-08-07T02:11:48;15.50;99.90
5842;DHT22;2947;52.276;9.946;2023-08-07T02:14:14;15.50;99.90
5842;DHT22;2947;52.276;9.946;2023-08-07T02:16:40;15.50;99.90
5842;DHT22;2947;52.276;9.946;2023-08-07T02:19:05;15.50;99.90
5842;DHT22;2947;52.276;9.946;2023-08-07T02:21:31;15.40;99.90
5842;DHT22;2947;52.276;9.946;2023-08-07T02:23:57;15.40;99.90
5842;DHT22;2947;52.276;9.946;2023-08-07T02:26:23;15.40;99.90
5842;DHT22;2947;52.276;9.946;2023-08-07T02:28:49;15.40;99.90
5842;DHT22;2947;52.276;9.946;2023-08-07T02:31:14;15.40;99.90
5842;DHT22;2947;52.276;9.946;2023-08-07T02:33:40;15.40;99.90
5842;DHT22;2947;52.276;9.946;2023-08-07T02:36:07;15.30;99.90
5842;DHT22;2947;52.276;9.946;2023-08-07T02:38:33;16.40;99.90
5842;DHT22;2947;52.276;9.946;2023-08-07T02:40:58;15.30;99.90
5842;DHT22;2947;52.276;9.946;2023-08-07T02:43:24;15.30;99.90
5842;DHT22;2947;52.276;9.946;2023-08-07T02:45:51;15.30;99.90
5842;DHT22;2947;52.276;9.946;2023-08-07T02:48:17;15.20;99.90
5842;DHT22;2947;52.276;9.946;2023-08-07T02:50:42;15.20;99.90
5842;DHT22;2947;52.276;9.946;2023-08-07T02:53:09;15.20;99.90
5842;DHT22;2947;52.276;9.946;2023-08-07T02:55:35;15.10;99.90
5842;DHT22;2947;52.276;9.946;2023-08-07T02:58:00;15.10;99.90
5842;DHT22;2947;52.276;9.946;2023-08-07T03:00:26;13.30;99.90
5842;DHT22;2947;52.276;9.946;2023-08-07T03:02:52;15.00;99.90
5842;DHT22;2947;52.276;9.946;2023-08-07T03:05:18;15.10;99.90
5842;DHT22;2947;52.276;9.946;2023-08-07T03:07:43;15.00;99.90
5842;DHT22;2947;52.276;9.946;2023-08-07T03:10:09;16.50;99.90
5842;DHT22;2947;52.276;9.946;2023-08-07T03:12:34;15.00;99.90
5842;DHT22;2947;52.276;9.946;2023-08-07T03:15:00;15.00;99.90
5842;DHT22;2947;52.276;9.946;2023-08-07T03:17:26;15.00;99.90
5842;DHT22;2947;52.276;9.946;2023-08-07T03:19:52;16.00;99.90
5842;DHT22;2947;52.276;9.946;2023-08-07T03:22:17;15.00;99.90
5842;DHT22;2947;52.276;9.946;2023-08-07T03:24:47;15.00;99.90
5842;DHT22;2947;52.276;9.946;2023-08-07T03:27:13;15.00;99.90
5842;DHT22;2947;52.276;9.946;2023-08-07T03:29:39;15.00;99.90
5842;DHT22;2947;52.276;9.946;2023-08-07T03:32:05;14.90;99.90
5842;DHT22;2947;52.276;9.946;2023-08-07T03:34:31;14.90;99.90
5842;DHT22;2947;52.276;9.946;2023-08-07T03:36:56;14.90;99.90
5842;DHT22;2947;52.276;9.946;2023-08-07T03:39:24;15.00;99.90
5842;DHT22;2947;52.276;9.946;2023-08-07T03:41:50;15.80;99.90
5842;DHT22;2947;52.276;9.946;2023-08-07T03:44:16;15.60;99.90
5842;DHT22;2947;52.276;9.946;2023-08-07T03:46:42;15.00;99.90
5842;DHT22;2947;52.276;9.946;2023-08-07T03:49:07;15.00;99.90
5842;DHT22;2947;52.276;9.946;2023-08-07T03:51:33;15.00;99.90
5842;DHT22;2947;52.276;9.946;2023-08-07T03:53:59;15.00;99.90
5842;DHT22;2947;52.276;9.946;2023-08-07T03:56:25;16.40;99.90
5842;DHT22;2947;52.276;9.946;2023-08-07T03:58:50;15.00;99.90
5842;DHT22;2947;52.276;9.946;2023-08-07T04:01:16;15.00;99.90
5842;DHT22;2947;52.276;9.946;2023-08-07T04:03:42;15.00;99.90
5842;DHT22;2947;52.276;9.946;2023-08-07T04:06:08;15.10;99.90
5842;DHT22;2947;52.276;9.946;2023-08-07T04:08:36;14.20;99.90
5842;DHT22;2947;52.276;9.946;2023-08-07T04:11:05;15.00;99.90
5842;DHT22;2947;52.276;9.946;2023-08-07T04:13:31;15.10;99.90
5842;DHT22;2947;52.276;9.946;2023-08-07T04:15:57;15.10;99.90
5842;DHT22;2947;52.276;9.946;2023-08-07T04:18:24;15.10;99.90
5842;DHT22;2947;52.276;9.946;2023-08-07T04:20:55;15.10;99.90
5842;DHT22;2947;52.276;9.946;2023-08-07T04:23:22;15.10;99.90
5842;DHT22;2947;52.276;9.946;2023-08-07T04:25:48;15.10;99.90
5842;DHT22;2947;52.276;9.946;2023-08-07T04:28:14;15.10;99.90
5842;DHT22;2947;52.276;9.946;2023-08-07T04:30:41;15.10;99.90
5842;DHT22;2947;52.276;9.946;2023-08-07T04:33:07;15.10;99.90
5842;DHT22;2947;52.276;9.946;2023-08-07T04:35:33;15.10;99.90
5842;DHT22;2947;52.276;9.946;2023-08-07T04:37:59;15.10;99.90
5842;DHT22;2947;52.276;9.946;2023-08-07T04:40:25;15.20;99.90
5842;DHT22;2947;52.276;9.946;2023-08-07T04:42:51;15.10;99.90
5842;DHT22;2947;52.276;9.946;2023-08-07T04:45:17;15.10;99.90
5842;DHT22;2947;52.276;9.946;2023-08-07T04:47:42;15.20;99.90
5842;DHT22;2947;52.276;9.946;2023-08-07T04:50:08;15.10;99.90
5842;DHT22;2947;52.276;9.946;2023-08-07T04:52:35;15.10;99.90
5842;DHT22;2947;52.276;9.946;2023-08-07T04:55:01;15.10;99.90
5842;DHT22;2947;52.276;9.946;2023-08-07T04:57:27;15.10;99.90
5842;DHT22;2947;52.276;9.946;2023-08-07T04:59:53;15.20;99.90
5842;DHT22;2947;52.276;9.946;2023-08-07T05:02:19;15.10;99.90
5842;DHT22;2947;52.276;9.946;2023-08-07T05:04:45;16.10;99.90
5842;DHT22;2947;52.276;9.946;2023-08-07T05:07:11;15.20;99.90
5842;DHT22;2947;52.276;9.946;2023-08-07T05:09:37;15.20;99.90
5842;DHT22;2947;52.276;9.946;2023-08-07T05:12:04;15.20;99.90
5842;DHT22;2947;52.276;9.946;2023-08-07T05:14:32;15.20;99.90
5842;DHT22;2947;52.276;9.946;2023-08-07T05:16:58;15.20;99.90
5842;DHT22;2947;52.276;9.946;2023-08-07T05:19:24;15.20;99.90
5842;DHT22;2947;52.276;9.946;2023-08-07T05:21:50;15.20;99.90
5842;DHT22;2947;52.276;9.946;2023-08-07T05:24:19;15.20;99.90
5842;DHT22;2947;52.276;9.946;2023-08-07T05:26:45;15.20;99.90
5842;DHT22;2947;52.276;9.946;2023-08-07T05:29:11;15.20;99.90
5842;DHT22;2947;52.276;9.946;2023-08-07T05:31:37;15.20;99.90
5842;DHT22;2947;52.276;9.946;2023-08-07T05:34:02;15.20;99.90
5842;DHT22;2947;52.276;9.946;2023-08-07T05:36:28;15.30;99.90
5842;DHT22;2947;52.276;9.946;2023-08-07T05:38:56;15.30;99.90
5842;DHT22;2947;52.276;9.946;2023-08-07T05:41:22;15.70;99.90
5842;DHT22;2947;52.276;9.946;2023-08-07T05:43:48;15.30;99.90
5842;DHT22;2947;52.276;9.946;2023-08-07T05:46:14;15.30;99.90
5842;DHT22;2947;52.276;9.946;2023-08-07T05:48:40;15.30;99.90
5842;DHT22;2947;52.276;9.946;2023-08-07T05:51:05;15.30;99.90
5842;DHT22;2947;52.276;9.946;2023-08-07T05:53:33;15.30;99.90
5842;DHT22;2947;52.276;9.946;2023-08-07T05:56:00;15.30;99.90
5842;DHT22;2947;52.276;9.946;2023-08-07T05:58:25;15.40;99.90
5842;DHT22;2947;52.276;9.946;2023-08-07T06:00:51;15.40;99.90
5842;DHT22;2947;52.276;9.946;2023-08-07T06:03:17;15.40;99.90
5842;DHT22;2947;52.276;9.946;2023-08-07T06:05:43;15.50;99.90
5842;DHT22;2947;52.276;9.946;2023-08-07T06:08:08;15.50;99.90
5842;DHT22;2947;52.276;9.946;2023-08-07T06:10:34;15.50;99.90
5842;DHT22;2947;52.276;9.946;2023-08-07T06:13:00;15.50;99.90
5842;DHT22;2947;52.276;9.946;2023-08-07T06:15:25;15.60;99.90
5842;DHT22;2947;52.276;9.946;2023-08-07T06:17:52;15.60;99.90
5842;DHT22;2947;52.276;9.946;2023-08-07T06:20:18;15.60;99.90
5842;DHT22;2947;52.276;9.946;2023-08-07T06:22:43;15.60;99.90
5842;DHT22;2947;52.276;9.946;2023-08-07T06:25:09;15.60;99.90
5842;DHT22;2947;52.276;9.946;2023-08-07T06:27:35;15.50;99.90
5842;DHT22;2947;52.276;9.946;2023-08-07T06:30:00;15.60;99.90
5842;DHT22;2947;52.276;9.946;2023-08-07T06:32:27;15.80;99.90
5842;DHT22;2947;52.276;9.946;2023-08-07T06:34:53;15.60;99.90
5842;DHT22;2947;52.276;9.946;2023-08-07T06:37:19;15.60;99.90
5842;DHT22;2947;52.276;9.946;2023-08-07T06:39:45;15.60;99.90
5842;DHT22;2947;52.276;9.946;2023-08-07T06:42:13;15.60;99.90
5842;DHT22;2947;52.276;9.946;2023-08-07T06:44:39;15.70;99.90
5842;DHT22;2947;52.276;9.946;2023-08-07T06:47:05;15.70;99.90
5842;DHT22;2947;52.276;9.946;2023-08-07T06:49:31;15.70;99.90
5842;DHT22;2947;52.276;9.946;2023-08-07T06:51:58;15.80;99.90
5842;DHT22;2947;52.276;9.946;2023-08-07T06:54:24;16.90;99.90
5842;DHT22;2947;52.276;9.946;2023-08-07T06:56:49;16.60;99.90
5842;DHT22;2947;52.276;9.946;2023-08-07T06:59:15;15.80;99.90
5842;DHT22;2947;52.276;9.946;2023-08-07T07:01:41;15.80;99.90
5842;DHT22;2947;52.276;9.946;2023-08-07T07:04:07;17.10;99.90
5842;DHT22;2947;52.276;9.946;2023-08-07T07:06:33;17.60;99.90
5842;DHT22;2947;52.276;9.946;2023-08-07T07:08:59;15.90;99.90
5842;DHT22;2947;52.276;9.946;2023-08-07T07:11:25;17.00;99.90
5842;DHT22;2947;52.276;9.946;2023-08-07T07:13:51;16.40;99.90
5842;DHT22;2947;52.276;9.946;2023-08-07T07:16:18;16.00;99.90
5842;DHT22;2947;52.276;9.946;2023-08-07T07:18:46;16.10;99.90
5842;DHT22;2947;52.276;9.946;2023-08-07T07:21:11;16.60;99.90
5842;DHT22;2947;52.276;9.946;2023-08-07T07:23:37;16.00;99.90
5842;DHT22;2947;52.276;9.946;2023-08-07T07:26:03;16.00;99.90
5842;DHT22;2947;52.276;9.946;2023-08-07T07:28:28;16.60;99.90
5842;DHT22;2947;52.276;9.946;2023-08-07T07:30:54;16.00;99.90
5842;DHT22;2947;52.276;9.946;2023-08-07T07:33:20;16.00;99.90
5842;DHT22;2947;52.276;9.946;2023-08-07T07:35:45;16.00;99.90
5842;DHT22;2947;52.276;9.946;2023-08-07T07:38:11;16.00;99.90
5842;DHT22;2947;52.276;9.946;2023-08-07T07:40:37;16.10;99.90
5842;DHT22;2947;52.276;9.946;2023-08-07T07:43:03;17.20;99.90
5842;DHT22;2947;52.276;9.946;2023-08-07T07:45:29;16.20;99.90
5842;DHT22;2947;52.276;9.946;2023-08-07T07:47:55;16.20;99.90
5842;DHT22;2947;52.276;9.946;2023-08-07T07:50:21;16.30;99.90
5842;DHT22;2947;52.276;9.946;2023-08-07T07:52:47;16.40;99.90
5842;DHT22;2947;52.276;9.946;2023-08-07T07:55:12;16.40;99.90
5842;DHT22;2947;52.276;9.946;2023-08-07T07:57:39;16.50;99.90
5842;DHT22;2947;52.276;9.946;2023-08-07T08:00:06;16.60;99.90
5842;DHT22;2947;52.276;9.946;2023-08-07T08:02:42;16.60;99.90
5842;DHT22;2947;52.276;9.946;2023-08-07T08:05:08;16.70;99.90
5842;DHT22;2947;52.276;9.946;2023-08-07T08:07:37;16.80;99.90
5842;DHT22;2947;52.276;9.946;2023-08-07T08:10:08;17.00;99.90
5842;DHT22;2947;52.276;9.946;2023-08-07T08:12:35;17.00;99.90
5842;DHT22;2947;52.276;9.946;2023-08-07T08:15:02;18.00;99.90
5842;DHT22;2947;52.276;9.946;2023-08-07T08:17:28;17.20;99.90
5842;DHT22;2947;52.276;9.946;2023-08-07T08:19:54;18.60;99.90
5842;DHT22;2947;52.276;9.946;2023-08-07T08:22:20;17.40;99.90
5842;DHT22;2947;52.276;9.946;2023-08-07T08:24:46;17.50;99.90
5842;DHT22;2947;52.276;9.946;2023-08-07T08:27:13;17.60;99.90
5842;DHT22;2947;52.276;9.946;2023-08-07T08:29:38;17.60;99.90
5842;DHT22;2947;52.276;9.946;2023-08-07T08:32:04;17.70;99.90
5842;DHT22;2947;52.276;9.946;2023-08-07T08:34:31;17.60;99.90
5842;DHT22;2947;52.276;9.946;2023-08-07T08:36:57;17.60;99.90
5842;DHT22;2947;52.276;9.946;2023-08-07T08:39:22;17.50;99.90
5842;DHT22;2947;52.276;9.946;2023-08-07T08:41:49;17.50;99.90
5842;DHT22;2947;52.276;9.946;2023-08-07T08:44:17;17.60;99.90
5842;DHT22;2947;52.276;9.946;2023-08-07T08:46:43;17.70;99.90
5842;DHT22;2947;52.276;9.946;2023-08-07T08:49:10;17.50;99.90
5842;DHT22;2947;52.276;9.946;2023-08-07T08:51:37;18.00;99.90
5842;DHT22;2947;52.276;9.946;2023-08-07T08:54:03;17.60;99.90
5842;DHT22;2947;52.276;9.946;2023-08-07T08:56:30;17.70;99.90
5842;DHT22;2947;52.276;9.946;2023-08-07T08:58:56;17.70;99.90
5842;DHT22;2947;52.276;9.946;2023-08-07T09:01:22;17.70;99.90
5842;DHT22;2947;52.276;9.946;2023-08-07T09:03:49;17.70;99.90
5842;DHT22;2947;52.276;9.946;2023-08-07T09:06:15;18.30;99.90
5842;DHT22;2947;52.276;9.946;2023-08-07T09:08:42;17.60;99.90
5842;DHT22;2947;52.276;9.946;2023-08-07T09:11:10;17.60;99.90
5842;DHT22;2947;52.276;9.946;2023-08-07T09:13:40;15.30;99.90
5842;DHT22;2947;52.276;9.946;2023-08-07T09:16:08;17.80;99.90
5842;DHT22;2947;52.276;9.946;2023-08-07T09:18:34;17.80;99.90
5842;DHT22;2947;52.276;9.946;2023-08-07T09:21:00;18.10;99.90
5842;DHT22;2947;52.276;9.946;2023-08-07T09:23:26;17.70;99.90
5842;DHT22;2947;52.276;9.946;2023-08-07T09:26:04;17.10;99.90
5842;DHT22;2947;52.276;9.946;2023-08-07T09:28:32;16.70;99.90
5842;DHT22;2947;52.276;9.946;2023-08-07T09:30:59;17.50;99.90
5842;DHT22;2947;52.276;9.946;2023-08-07T09:33:26;16.30;99.90
5842;DHT22;2947;52.276;9.946;2023-08-07T09:35:52;16.10;99.90
5842;DHT22;2947;52.276;9.946;2023-08-07T09:38:21;16.10;99.90
5842;DHT22;2947;52.276;9.946;2023-08-07T09:40:48;16.40;99.90
5842;DHT22;2947;52.276;9.946;2023-08-07T09:43:21;16.20;99.90
5842;DHT22;2947;52.276;9.946;2023-08-07T09:45:48;16.30;99.90
5842;DHT22;2947;52.276;9.946;2023-08-07T09:48:22;16.40;99.90
5842;DHT22;2947;52.276;9.946;2023-08-07T09:50:50;16.60;99.90
5842;DHT22;2947;52.276;9.946;2023-08-07T09:53:16;16.70;99.90
5842;DHT22;2947;52.276;9.946;2023-08-07T09:55:42;16.80;99.90
5842;DHT22;2947;52.276;9.946;2023-08-07T09:58:12;17.50;99.90
5842;DHT22;2947;52.276;9.946;2023-08-07T10:00:40;17.00;99.90
5842;DHT22;2947;52.276;9.946;2023-08-07T10:03:06;17.20;99.90
5842;DHT22;2947;52.276;9.946;2023-08-07T10:05:33;17.40;99.90
5842;DHT22;2947;52.276;9.946;2023-08-07T10:07:59;18.40;99.90
5842;DHT22;2947;52.276;9.946;2023-08-07T10:10:25;17.50;99.90
5842;DHT22;2947;52.276;9.946;2023-08-07T10:12:52;17.60;99.90
5842;DHT22;2947;52.276;9.946;2023-08-07T10:15:19;17.90;99.90
5842;DHT22;2947;52.276;9.946;2023-08-07T10:17:45;17.50;99.90
5842;DHT22;2947;52.276;9.946;2023-08-07T10:20:12;17.40;99.90
5842;DHT22;2947;52.276;9.946;2023-08-07T10:22:38;17.50;99.90
5842;DHT22;2947;52.276;9.946;2023-08-07T10:25:06;17.50;99.90
5842;DHT22;2947;52.276;9.946;2023-08-07T10:27:37;17.50;99.90
5842;DHT22;2947;52.276;9.946;2023-08-07T10:30:10;17.60;99.90
5842;DHT22;2947;52.276;9.946;2023-08-07T10:32:41;17.50;99.90
5842;DHT22;2947;52.276;9.946;2023-08-07T10:35:08;17.50;99.90
5842;DHT22;2947;52.276;9.946;2023-08-07T10:40:11;17.60;99.90
5842;DHT22;2947;52.276;9.946;2023-08-07T10:43:11;17.80;99.90
5842;DHT22;2947;52.276;9.946;2023-08-07T10:45:38;18.00;99.90
5842;DHT22;2947;52.276;9.946;2023-08-07T10:48:10;18.30;99.90
5842;DHT22;2947;52.276;9.946;2023-08-07T10:53:42;18.70;99.90
5842;DHT22;2947;52.276;9.946;2023-08-07T10:59:12;18.80;42.00
5842;DHT22;2947;52.276;9.946;2023-08-07T11:01:41;18.70;55.20
5842;DHT22;2947;52.276;9.946;2023-08-07T11:04:12;18.90;58.80
5842;DHT22;2947;52.276;9.946;2023-08-07T11:06:40;19.00;48.30
5842;DHT22;2947;52.276;9.946;2023-08-07T11:09:08;19.00;38.60
5842;DHT22;2947;52.276;9.946;2023-08-07T11:14:13;19.10;96.90
5842;DHT22;2947;52.276;9.946;2023-08-07T11:16:40;19.00;94.90
5842;DHT22;2947;52.276;9.946;2023-08-07T11:19:06;19.00;79.80
5842;DHT22;2947;52.276;9.946;2023-08-07T11:21:33;19.10;99.40
5842;DHT22;2947;52.276;9.946;2023-08-07T11:23:59;19.30;99.90
5842;DHT22;2947;52.276;9.946;2023-08-07T11:26:25;19.30;16.90
5842;DHT22;2947;52.276;9.946;2023-08-07T11:28:53;20.10;1.00
5842;DHT22;2947;52.276;9.946;2023-08-07T11:31:20;19.40;78.00
5842;DHT22;2947;52.276;9.946;2023-08-07T11:33:49;19.40;1.00
5842;DHT22;2947;52.276;9.946;2023-08-07T11:36:15;19.60;9.10
5842;DHT22;2947;52.276;9.946;2023-08-07T11:38:43;19.60;1.00
5842;DHT22;2947;52.276;9.946;2023-08-07T11:41:09;20.20;8.90
5842;DHT22;2947;52.276;9.946;2023-08-07T11:43:37;19.90;1.00
5842;DHT22;2947;52.276;9.946;2023-08-07T11:46:04;20.00;1.00
5842;DHT22;2947;52.276;9.946;2023-08-07T11:48:33;19.90;99.90
5842;DHT22;2947;52.276;9.946;2023-08-07T11:51:00;19.70;1.00
5842;DHT22;2947;52.276;9.946;2023-08-07T11:53:35;20.40;1.00
5842;DHT22;2947;52.276;9.946;2023-08-07T11:56:10;19.40;1.00
5842;DHT22;2947;52.276;9.946;2023-08-07T11:58:38;19.20;99.90
5842;DHT22;2947;52.276;9.946;2023-08-07T12:01:12;20.00;99.90
5842;DHT22;2947;52.276;9.946;2023-08-07T12:03:55;18.70;99.90
5842;DHT22;2947;52.276;9.946;2023-08-07T12:06:30;18.50;99.90
5842;DHT22;2947;52.276;9.946;2023-08-07T12:08:56;18.30;99.90
5842;DHT22;2947;52.276;9.946;2023-08-07T12:11:23;18.00;99.90
5842;DHT22;2947;52.276;9.946;2023-08-07T12:13:49;18.70;99.90
5842;DHT22;2947;52.276;9.946;2023-08-07T12:16:16;18.60;99.90
5842;DHT22;2947;52.276;9.946;2023-08-07T12:18:50;18.10;99.90
5842;DHT22;2947;52.276;9.946;2023-08-07T12:21:20;18.10;99.90
5842;DHT22;2947;52.276;9.946;2023-08-07T12:23:49;18.30;99.90
5842;DHT22;2947;52.276;9.946;2023-08-07T12:26:16;18.50;1.00
5842;DHT22;2947;52.276;9.946;2023-08-07T12:28:42;18.60;99.90
5842;DHT22;2947;52.276;9.946;2023-08-07T12:31:08;18.50;99.90
5842;DHT22;2947;52.276;9.946;2023-08-07T12:33:34;18.70;99.90
5842;DHT22;2947;52.276;9.946;2023-08-07T12:36:00;18.70;99.90
5842;DHT22;2947;52.276;9.946;2023-08-07T12:38:27;18.70;99.90
5842;DHT22;2947;52.276;9.946;2023-08-07T12:40:53;18.70;99.90
5842;DHT22;2947;52.276;9.946;2023-08-07T12:43:19;18.50;1.00
5842;DHT22;2947;52.276;9.946;2023-08-07T12:45:45;18.70;1.00
5842;DHT22;2947;52.276;9.946;2023-08-07T12:48:12;18.20;1.00
5842;DHT22;2947;52.276;9.946;2023-08-07T12:50:38;18.60;1.00
5842;DHT22;2947;52.276;9.946;2023-08-07T12:53:05;17.80;99.90
5842;DHT22;2947;52.276;9.946;2023-08-07T12:55:32;18.70;99.90
5842;DHT22;2947;52.276;9.946;2023-08-07T12:57:58;17.50;1.00
5842;DHT22;2947;52.276;9.946;2023-08-07T13:00:23;17.50;1.00
5842;DHT22;2947;52.276;9.946;2023-08-07T13:02:51;17.90;1.00
5842;DHT22;2947;52.276;9.946;2023-08-07T13:05:17;17.50;99.90
5842;DHT22;2947;52.276;9.946;2023-08-07T13:07:45;18.70;1.00
5842;DHT22;2947;52.276;9.946;2023-08-07T13:10:14;17.60;73.40
5842;DHT22;2947;52.276;9.946;2023-08-07T13:12:44;17.70;25.00
5842;DHT22;2947;52.276;9.946;2023-08-07T13:15:15;17.70;99.90
5842;DHT22;2947;52.276;9.946;2023-08-07T13:17:42;17.80;99.90
5842;DHT22;2947;52.276;9.946;2023-08-07T13:20:10;17.90;1.00
5842;DHT22;2947;52.276;9.946;2023-08-07T13:22:39;18.00;1.00
5842;DHT22;2947;52.276;9.946;2023-08-07T13:25:07;18.10;1.00
5842;DHT22;2947;52.276;9.946;2023-08-07T13:27:33;18.20;1.00
5842;DHT22;2947;52.276;9.946;2023-08-07T13:30:00;18.40;1.00
5842;DHT22;2947;52.276;9.946;2023-08-07T13:32:26;18.60;1.00
5842;DHT22;2947;52.276;9.946;2023-08-07T13:34:53;18.70;1.00
5842;DHT22;2947;52.276;9.946;2023-08-07T13:37:19;18.60;99.90
5842;DHT22;2947;52.276;9.946;2023-08-07T13:39:45;18.50;99.90
5842;DHT22;2947;52.276;9.946;2023-08-07T13:42:10;18.40;99.90
5842;DHT22;2947;52.276;9.946;2023-08-07T13:44:37;18.30;99.90
5842;DHT22;2947;52.276;9.946;2023-08-07T13:47:04;18.40;99.90
5842;DHT22;2947;52.276;9.946;2023-08-07T13:49:30;18.40;53.20
5842;DHT22;2947;52.276;9.946;2023-08-07T13:51:56;18.40;1.00
5842;DHT22;2947;52.276;9.946;2023-08-07T13:54:21;18.40;1.00
5842;DHT22;2947;52.276;9.946;2023-08-07T13:56:47;18.60;2.90
5842;DHT22;2947;52.276;9.946;2023-08-07T13:59:13;18.60;1.00
5842;DHT22;2947;52.276;9.946;2023-08-07T14:01:39;18.50;1.00
5842;DHT22;2947;52.276;9.946;2023-08-07T14:04:05;18.40;1.00
5842;DHT22;2947;52.276;9.946;2023-08-07T14:06:31;18.30;1.00
5842;DHT22;2947;52.276;9.946;2023-08-07T14:08:56;18.30;8.40
5842;DHT22;2947;52.276;9.946;2023-08-07T14:11:22;18.50;46.50
5842;DHT22;2947;52.276;9.946;2023-08-07T14:13:53;19.50;48.80
5842;DHT22;2947;52.276;9.946;2023-08-07T14:16:19;20.10;49.00
5842;DHT22;2947;52.276;9.946;2023-08-07T14:18:47;18.60;83.20
5842;DHT22;2947;52.276;9.946;2023-08-07T14:21:13;18.60;18.80
5842;DHT22;2947;52.276;9.946;2023-08-07T14:23:38;18.80;99.90
5842;DHT22;2947;52.276;9.946;2023-08-07T14:26:04;18.80;46.30
5842;DHT22;2947;52.276;9.946;2023-08-07T14:28:30;18.70;9.40
5842;DHT22;2947;52.276;9.946;2023-08-07T14:30:57;19.30;1.10
5842;DHT22;2947;52.276;9.946;2023-08-07T14:33:24;18.60;1.00
5842;DHT22;2947;52.276;9.946;2023-08-07T14:35:50;18.70;1.00
5842;DHT22;2947;52.276;9.946;2023-08-07T14:38:16;18.80;1.00
5842;DHT22;2947;52.276;9.946;2023-08-07T14:40:41;18.80;1.00
5842;DHT22;2947;52.276;9.946;2023-08-07T14:43:08;18.80;1.00
5842;DHT22;2947;52.276;9.946;2023-08-07T14:45:35;18.90;1.00
5842;DHT22;2947;52.276;9.946;2023-08-07T14:48:02;20.10;1.00
5842;DHT22;2947;52.276;9.946;2023-08-07T14:50:28;18.80;1.00
5842;DHT22;2947;52.276;9.946;2023-08-07T14:52:54;18.80;1.00
5842;DHT22;2947;52.276;9.946;2023-08-07T14:55:20;18.70;1.00
5842;DHT22;2947;52.276;9.946;2023-08-07T14:57:45;18.80;1.00
5842;DHT22;2947;52.276;9.946;2023-08-07T15:00:11;18.80;1.00
5842;DHT22;2947;52.276;9.946;2023-08-07T15:02:38;18.80;1.00
5842;DHT22;2947;52.276;9.946;2023-08-07T15:05:05;18.90;1.00
5842;DHT22;2947;52.276;9.946;2023-08-07T15:07:31;18.80;1.00
5842;DHT22;2947;52.276;9.946;2023-08-07T15:09:57;18.80;1.00
5842;DHT22;2947;52.276;9.946;2023-08-07T15:12:22;18.80;1.00
5842;DHT22;2947;52.276;9.946;2023-08-07T15:14:48;18.70;1.00
5842;DHT22;2947;52.276;9.946;2023-08-07T15:17:14;18.70;1.00
5842;DHT22;2947;52.276;9.946;2023-08-07T15:19:40;18.60;1.00
5842;DHT22;2947;52.276;9.946;2023-08-07T15:22:05;18.50;1.00
5842;DHT22;2947;52.276;9.946;2023-08-07T15:24:31;18.50;1.00
5842;DHT22;2947;52.276;9.946;2023-08-07T15:26:57;19.70;1.00
5842;DHT22;2947;52.276;9.946;2023-08-07T15:29:22;18.50;1.00
5842;DHT22;2947;52.276;9.946;2023-08-07T15:31:48;18.50;1.00
5842;DHT22;2947;52.276;9.946;2023-08-07T15:34:14;18.50;1.00
5842;DHT22;2947;52.276;9.946;2023-08-07T15:36:40;19.70;1.00
5842;DHT22;2947;52.276;9.946;2023-08-07T15:39:05;19.60;1.00
5842;DHT22;2947;52.276;9.946;2023-08-07T15:41:32;18.30;1.00
5842;DHT22;2947;52.276;9.946;2023-08-07T15:43:57;19.40;1.00
5842;DHT22;2947;52.276;9.946;2023-08-07T15:46:23;19.00;1.00
5842;DHT22;2947;52.276;9.946;2023-08-07T15:48:49;18.20;1.00
5842;DHT22;2947;52.276;9.946;2023-08-07T15:51:16;18.20;1.00
5842;DHT22;2947;52.276;9.946;2023-08-07T15:53:42;17.80;1.00
5842;DHT22;2947;52.276;9.946;2023-08-07T15:56:07;17.90;1.00
5842;DHT22;2947;52.276;9.946;2023-08-07T15:58:34;18.60;1.00
5842;DHT22;2947;52.276;9.946;2023-08-07T16:01:00;17.70;1.00
5842;DHT22;2947;52.276;9.946;2023-08-07T16:03:25;17.70;1.00
5842;DHT22;2947;52.276;9.946;2023-08-07T16:05:51;17.70;1.00
5842;DHT22;2947;52.276;9.946;2023-08-07T16:08:17;17.90;1.00
5842;DHT22;2947;52.276;9.946;2023-08-07T16:10:42;17.50;99.90
5842;DHT22;2947;52.276;9.946;2023-08-07T16:13:08;18.30;99.90
5842;DHT22;2947;52.276;9.946;2023-08-07T16:15:34;17.50;1.00
5842;DHT22;2947;52.276;9.946;2023-08-07T16:18:00;17.50;1.00
5842;DHT22;2947;52.276;9.946;2023-08-07T16:20:29;17.60;1.00